createdAt,value
2019-01-16T00:00:00.453Z,74.97
2019-01-16T00:02:37.901Z,74.70
2019-01-16T00:05:35.509Z,75.18
2019-01-16T00:08:20.414Z,75.85
2019-01-16T00:11:03.984Z,76.38
2019-01-16T00:13:51.939Z,76.68
2019-01-16T00:16:38.701Z,76.62
2019-01-16T00:19:28.542Z,76.53
2019-01-16T00:22:20.977Z,76.90
2019-01-16T00:24:58.961Z,76.60
2019-01-16T00:27:45.766Z,76.47
2019-01-16T00:30:35.723Z,76.66
2019-01-16T00:33:34.315Z,76.92
2019-01-16T00:36:21.981Z,76.71
2019-01-16T00:39:26.601Z,76.13
2019-01-16T00:42:11.371Z,76.20
2019-01-16T00:45:06.829Z,76.57
2019-01-16T00:47:56.461Z,76.54
2019-01-16T00:50:55.393Z,76.45
2019-01-16T00:53:41.826Z,75.96
2019-01-16T00:56:23.624Z,75.85
2019-01-16T00:58:58.956Z,76.17
2019-01-16T01:01:48.041Z,76.24
2019-01-16T01:04:43.746Z,76.06
2019-01-16T01:07:23.750Z,76.27
2019-01-16T01:10:20.213Z,76.73
2019-01-16T01:13:06.973Z,76.32
2019-01-16T01:15:41.843Z,75.73
2019-01-16T01:18:32.374Z,76.77
2019-01-16T01:21:15.694Z,77.03
2019-01-16T01:24:05.275Z,75.63
2019-01-16T01:27:07.059Z,75.15
2019-01-16T01:29:53.860Z,74.42
2019-01-16T01:32:45.203Z,74.41
2019-01-16T01:35:26.424Z,74.31
2019-01-16T01:38:20.119Z,74.72
2019-01-16T01:41:12.665Z,74.63
2019-01-16T01:43:59.491Z,74.94
2019-01-16T01:46:45.096Z,74.67
2019-01-16T01:49:25.983Z,74.52
2019-01-16T01:52:11.300Z,74.87
2019-01-16T01:54:48.565Z,74.87
2019-01-16T01:57:44.072Z,74.49
2019-01-16T02:00:29.271Z,74.22
2019-01-16T02:03:18.818Z,74.50
2019-01-16T02:05:56.954Z,74.57
2019-01-16T02:08:46.482Z,74.41
2019-01-16T02:11:39.124Z,74.23
2019-01-16T02:14:31.966Z,74.15
2019-01-16T02:17:10.082Z,74.06
2019-01-16T02:19:58.052Z,74.31
2019-01-16T02:22:53.443Z,74.83
2019-01-16T02:25:40.222Z,74.73
2019-01-16T02:28:30.124Z,74.94
2019-01-16T02:31:35.084Z,75.50
2019-01-16T02:34:24.643Z,75.32
2019-01-16T02:37:14.085Z,74.21
2019-01-16T02:39:58.536Z,74.41
2019-01-16T02:42:55.835Z,74.85
2019-01-16T02:45:54.461Z,75.48
2019-01-16T02:48:39.822Z,75.43
2019-01-16T02:51:35.459Z,75.42
2019-01-16T02:54:18.205Z,75.98
2019-01-16T02:57:14.187Z,75.21
2019-01-16T02:59:59.164Z,75.10
2019-01-16T03:02:44.652Z,76.15
2019-01-16T03:05:49.179Z,76.69
2019-01-16T03:08:31.819Z,76.52
2019-01-16T03:11:12.967Z,76.49
2019-01-16T03:13:47.176Z,76.48
2019-01-16T03:16:30.981Z,75.57
2019-01-16T03:19:16.497Z,74.99
2019-01-16T03:21:57.673Z,74.90
2019-01-16T03:24:44.483Z,75.17
2019-01-16T03:27:23.610Z,74.70
2019-01-16T03:30:18.098Z,74.46
2019-01-16T03:33:03.329Z,74.71
2019-01-16T03:35:53.040Z,74.27
2019-01-16T03:38:35.090Z,74.09
2019-01-16T03:41:19.582Z,74.46
2019-01-16T03:44:05.523Z,74.25
2019-01-16T03:46:52.322Z,74.02
2019-01-16T03:49:38.711Z,74.37
2019-01-16T03:52:36.503Z,73.49
2019-01-16T03:55:26.851Z,73.72
2019-01-16T03:58:12.075Z,73.05
2019-01-16T04:01:01.547Z,72.96
2019-01-16T04:03:48.336Z,72.61
2019-01-16T04:06:27.288Z,72.53
2019-01-16T04:09:19.964Z,73.12
2019-01-16T04:12:18.342Z,72.96
2019-01-16T04:15:03.570Z,72.53
2019-01-16T04:17:55.954Z,72.84
2019-01-16T04:20:41.227Z,72.14
2019-01-16T04:23:31.635Z,72.14
2019-01-16T04:26:23.946Z,72.43
2019-01-16T04:29:28.677Z,71.90
2019-01-16T04:32:08.735Z,71.62
2019-01-16T04:35:02.573Z,71.71
2019-01-16T04:38:01.169Z,71.81
2019-01-16T04:40:46.310Z,71.87
2019-01-16T04:43:21.177Z,70.90
2019-01-16T04:46:06.041Z,71.06
2019-01-16T04:48:39.191Z,71.74
2019-01-16T04:51:31.821Z,71.10
2019-01-16T04:54:21.382Z,70.59
2019-01-16T04:56:59.518Z,70.05
2019-01-16T04:59:55.170Z,70.09
2019-01-16T05:02:40.344Z,69.55
2019-01-16T05:05:25.514Z,69.31
2019-01-16T05:08:18.075Z,68.85
2019-01-16T05:11:14.042Z,69.82
2019-01-16T05:13:56.353Z,69.62
2019-01-16T05:16:49.305Z,69.62
2019-01-16T05:19:44.801Z,70.13
2019-01-16T05:22:37.644Z,69.89
2019-01-16T05:25:30.147Z,69.73
2019-01-16T05:28:15.642Z,70.13
2019-01-16T05:31:05.988Z,70.62
2019-01-16T05:33:51.217Z,70.44
2019-01-16T05:36:30.725Z,70.74
2019-01-16T05:39:15.960Z,69.98
2019-01-16T05:42:01.255Z,69.57
2019-01-16T05:44:46.535Z,69.79
2019-01-16T05:47:29.894Z,69.85
2019-01-16T05:50:34.389Z,70.48
2019-01-16T05:53:27.121Z,70.63
2019-01-16T05:56:08.412Z,69.72
2019-01-16T05:58:55.194Z,69.47
2019-01-16T06:01:47.901Z,69.07
2019-01-16T06:04:34.676Z,68.90
2019-01-16T06:07:19.853Z,69.03
2019-01-16T06:10:09.417Z,69.17
2019-01-16T06:12:57.313Z,69.53
2019-01-16T06:15:50.173Z,69.37
2019-01-16T06:18:35.653Z,69.05
2019-01-16T06:21:25.102Z,69.61
2019-01-16T06:24:17.669Z,69.07
2019-01-16T06:27:09.936Z,68.29
2019-01-16T06:29:55.330Z,68.16
2019-01-16T06:32:41.133Z,68.23
2019-01-16T06:35:27.943Z,68.46
2019-01-16T06:38:20.494Z,68.14
2019-01-16T06:41:10.077Z,68.32
2019-01-16T06:44:01.704Z,68.08
2019-01-16T06:46:47.663Z,67.96
2019-01-16T06:49:40.481Z,68.18
2019-01-16T06:52:30.344Z,67.24
2019-01-16T06:55:17.944Z,67.45
2019-01-16T06:58:02.925Z,67.10
2019-01-16T07:00:42.877Z,66.95
2019-01-16T07:03:30.023Z,67.60
2019-01-16T07:06:15.226Z,67.45
2019-01-16T07:09:00.690Z,67.08
2019-01-16T07:11:38.258Z,66.90
2019-01-16T07:14:43.286Z,66.11
2019-01-16T07:17:32.863Z,66.37
2019-01-16T07:20:22.667Z,67.09
2019-01-16T07:23:18.425Z,67.75
2019-01-16T07:26:05.236Z,66.25
2019-01-16T07:28:50.656Z,65.73
2019-01-16T07:31:37.362Z,65.95
2019-01-16T07:34:33.300Z,65.43
2019-01-16T07:37:20.130Z,65.35
2019-01-16T07:40:03.896Z,65.00
2019-01-16T07:42:49.421Z,65.94
2019-01-16T07:45:34.905Z,64.93
2019-01-16T07:48:16.155Z,66.00
2019-01-16T07:51:08.448Z,66.77
2019-01-16T07:54:07.444Z,66.88
2019-01-16T07:56:45.874Z,66.20
2019-01-16T07:59:31.030Z,66.05
2019-01-16T08:02:23.632Z,65.57
2019-01-16T08:05:19.286Z,65.21
2019-01-16T08:08:24.243Z,66.31
2019-01-16T08:11:11.160Z,66.17
2019-01-16T08:13:57.937Z,65.79
2019-01-16T08:16:50.519Z,66.44
2019-01-16T08:19:40.028Z,67.37
2019-01-16T08:22:25.233Z,66.83
2019-01-16T08:25:02.900Z,66.94
2019-01-16T08:28:07.598Z,66.90
2019-01-16T08:30:57.719Z,66.20
2019-01-16T08:34:02.126Z,65.24
2019-01-16T08:36:48.900Z,65.18
2019-01-16T08:39:33.972Z,65.37
2019-01-16T08:42:19.113Z,65.86
2019-01-16T08:45:04.383Z,65.56
2019-01-16T08:47:49.703Z,66.17
2019-01-16T08:50:51.675Z,65.92
2019-01-16T08:53:36.611Z,65.76
2019-01-16T08:56:22.169Z,65.62
2019-01-16T08:59:08.972Z,65.28
2019-01-16T09:02:01.666Z,64.93
2019-01-16T09:04:53.414Z,65.26
2019-01-16T09:07:40.254Z,64.70
2019-01-16T09:10:30.357Z,65.00
2019-01-16T09:13:15.825Z,65.05
2019-01-16T09:16:08.289Z,65.20
2019-01-16T09:18:53.719Z,65.40
2019-01-16T09:21:46.639Z,64.70
2019-01-16T09:24:42.393Z,65.00
2019-01-16T09:27:37.944Z,64.49
2019-01-16T09:30:28.042Z,64.60
2019-01-16T09:33:17.699Z,65.57
2019-01-16T09:36:01.689Z,65.48
2019-01-16T09:39:06.336Z,63.95
2019-01-16T09:41:51.559Z,64.12
2019-01-16T09:44:34.996Z,64.10
2019-01-16T09:47:20.384Z,64.36
2019-01-16T09:50:00.263Z,64.28
2019-01-16T09:52:59.061Z,64.57
2019-01-16T09:55:38.907Z,64.06
2019-01-16T09:58:31.701Z,64.50
2019-01-16T10:01:16.973Z,64.74
2019-01-16T10:04:12.401Z,64.47
2019-01-16T10:06:57.644Z,63.42
2019-01-16T10:09:53.190Z,63.10
2019-01-16T10:12:31.395Z,63.29
2019-01-16T10:15:25.005Z,63.42
2019-01-16T10:18:10.217Z,63.31
2019-01-16T10:20:55.854Z,62.96
2019-01-16T10:23:41.460Z,62.79
2019-01-16T10:26:20.317Z,62.08
2019-01-16T10:29:15.950Z,62.19
2019-01-16T10:31:55.835Z,61.73
2019-01-16T10:34:54.805Z,62.30
2019-01-16T10:37:50.633Z,62.29
2019-01-16T10:40:43.524Z,63.33
2019-01-16T10:43:33.453Z,62.99
2019-01-16T10:46:23.648Z,62.52
2019-01-16T10:48:58.799Z,62.70
2019-01-16T10:51:43.661Z,61.59
2019-01-16T10:54:22.062Z,60.74
2019-01-16T10:57:08.846Z,60.92
2019-01-16T10:59:44.483Z,61.14
2019-01-16T11:02:45.986Z,60.61
2019-01-16T11:05:30.339Z,61.37
2019-01-16T11:08:10.793Z,59.69
2019-01-16T11:10:56.099Z,60.65
2019-01-16T11:13:46.022Z,61.43
2019-01-16T11:16:31.337Z,61.89
2019-01-16T11:19:20.857Z,61.44
2019-01-16T11:22:06.315Z,60.66
2019-01-16T11:25:05.254Z,62.54
2019-01-16T11:28:00.836Z,62.86
2019-01-16T11:30:46.224Z,62.53
2019-01-16T11:33:42.225Z,61.25
2019-01-16T11:36:34.909Z,61.82
2019-01-16T11:39:27.861Z,62.00
2019-01-16T11:42:06.557Z,61.05
2019-01-16T11:44:59.538Z,61.22
2019-01-16T11:47:45.145Z,60.56
2019-01-16T11:50:37.716Z,59.71
2019-01-16T11:53:24.511Z,59.93
2019-01-16T11:56:08.733Z,59.43
2019-01-16T11:58:50.304Z,59.48
2019-01-16T12:01:43.033Z,58.04
2019-01-16T12:04:25.644Z,58.83
2019-01-16T12:07:10.824Z,58.05
2019-01-16T12:09:56.289Z,59.00
2019-01-16T12:12:52.209Z,58.63
2019-01-16T12:15:47.290Z,59.23
2019-01-16T12:18:29.446Z,58.36
2019-01-16T12:21:28.275Z,57.15
2019-01-16T12:24:14.025Z,57.63
2019-01-16T12:26:59.400Z,58.57
2019-01-16T12:29:46.488Z,58.48
2019-01-16T12:32:23.653Z,58.00
2019-01-16T12:35:22.404Z,58.25
2019-01-16T12:38:18.202Z,57.76
2019-01-16T12:41:13.879Z,57.78
2019-01-16T12:44:10.823Z,58.16
2019-01-16T12:47:16.099Z,57.81
2019-01-16T12:50:05.599Z,56.81
2019-01-16T12:52:43.993Z,57.23
2019-01-16T12:55:33.561Z,57.31
2019-01-16T12:58:18.606Z,57.45
2019-01-16T13:00:54.628Z,57.41
2019-01-16T13:03:36.009Z,58.28
2019-01-16T13:09:03.312Z,58.00
2019-01-16T13:12:08.221Z,56.98
2019-01-16T13:14:50.636Z,57.24
2019-01-16T13:17:40.231Z,57.57
2019-01-16T13:20:31.125Z,57.49
2019-01-16T13:23:08.154Z,57.19
2019-01-16T13:25:47.846Z,58.16
2019-01-16T13:28:33.569Z,57.97
2019-01-16T13:31:20.312Z,57.45
2019-01-16T13:34:22.184Z,57.02
2019-01-16T13:37:03.210Z,57.30
2019-01-16T13:39:41.952Z,57.84
2019-01-16T13:42:34.893Z,57.50
2019-01-16T13:45:21.667Z,57.11
2019-01-16T13:48:14.167Z,56.87
2019-01-16T13:50:59.674Z,57.22
2019-01-16T13:53:59.900Z,56.77
2019-01-16T13:56:58.568Z,57.85
2019-01-16T13:59:57.845Z,58.51
2019-01-16T14:02:53.534Z,59.85
2019-01-16T14:05:38.834Z,60.64
2019-01-16T14:08:18.753Z,60.01
2019-01-16T14:11:10.769Z,60.78
2019-01-16T14:14:00.622Z,61.51
2019-01-16T14:16:55.885Z,61.08
2019-01-16T14:20:00.587Z,62.27
2019-01-16T14:22:45.872Z,61.27
2019-01-16T14:25:25.230Z,61.77
2019-01-16T14:28:17.915Z,61.94
2019-01-16T14:31:13.428Z,62.41
2019-01-16T14:33:54.563Z,62.86
2019-01-16T14:36:50.435Z,63.35
2019-01-16T14:39:29.561Z,63.96
2019-01-16T14:42:19.997Z,64.27
2019-01-16T14:45:18.941Z,63.87
2019-01-16T14:47:57.009Z,64.50
2019-01-16T14:50:29.721Z,65.19
2019-01-16T14:53:05.445Z,65.23
2019-01-16T14:55:54.187Z,65.54
2019-01-16T14:58:39.172Z,66.27
2019-01-16T15:01:29.013Z,67.00
2019-01-16T15:04:27.699Z,67.86
2019-01-16T15:07:13.581Z,67.13
2019-01-16T15:10:00.406Z,67.51
2019-01-16T15:12:49.976Z,68.04
2019-01-16T15:15:32.725Z,68.06
2019-01-16T15:18:17.822Z,68.11
2019-01-16T15:21:07.341Z,68.50
2019-01-16T15:23:54.197Z,68.73
2019-01-16T15:26:31.589Z,69.37
2019-01-16T15:29:16.982Z,70.22
2019-01-16T15:32:02.100Z,70.50
2019-01-16T15:34:48.904Z,71.15
2019-01-16T15:37:25.645Z,71.61
2019-01-16T15:40:21.093Z,71.85
2019-01-16T15:43:17.023Z,72.79
2019-01-16T15:45:59.208Z,73.12
2019-01-16T15:48:43.476Z,72.85
2019-01-16T15:51:28.764Z,72.74
2019-01-16T15:54:10.898Z,73.18
2019-01-16T15:57:06.939Z,73.42
2019-01-16T15:59:48.531Z,73.96
2019-01-16T16:02:35.251Z,74.70
2019-01-16T16:05:14.417Z,74.07
2019-01-16T16:07:58.409Z,74.51
2019-01-16T16:10:43.836Z,74.91
2019-01-16T16:13:39.164Z,74.94
2019-01-16T16:16:17.664Z,74.94
2019-01-16T16:19:04.476Z,74.68
2019-01-16T16:22:06.120Z,75.02
2019-01-16T16:25:05.165Z,75.12
2019-01-16T16:27:50.646Z,74.21
2019-01-16T16:30:46.020Z,74.03
2019-01-16T16:33:42.521Z,74.10
2019-01-16T16:36:27.932Z,73.88
2019-01-16T16:39:20.397Z,73.23
2019-01-16T16:41:59.018Z,73.80
2019-01-16T16:44:44.367Z,74.01
2019-01-16T16:47:21.774Z,73.47
2019-01-16T16:50:02.491Z,73.92
2019-01-16T16:52:47.993Z,74.08
2019-01-16T16:55:44.894Z,73.46
2019-01-16T16:58:35.124Z,73.10
2019-01-16T17:01:17.941Z,73.61
2019-01-16T17:04:11.440Z,74.07
2019-01-16T17:06:55.359Z,73.56
2019-01-16T17:09:50.750Z,73.09
2019-01-16T17:12:37.556Z,73.32
2019-01-16T17:15:25.097Z,73.81
2019-01-16T17:18:14.547Z,73.75
2019-01-16T17:20:59.996Z,74.14
2019-01-16T17:23:52.794Z,73.99
2019-01-16T17:26:38.332Z,74.75
2019-01-16T17:29:43.111Z,74.98
2019-01-16T17:32:38.926Z,74.49
2019-01-16T17:35:38.372Z,74.26
2019-01-16T17:38:40.139Z,74.01
2019-01-16T17:41:41.573Z,74.15
2019-01-16T17:44:27.551Z,74.11
2019-01-16T17:47:32.502Z,73.97
2019-01-16T17:50:17.761Z,74.79
2019-01-16T17:53:02.950Z,75.30
2019-01-16T17:55:48.113Z,74.47
2019-01-16T17:58:40.742Z,74.31
2019-01-16T18:01:18.143Z,74.03
2019-01-16T18:04:11.297Z,74.65
2019-01-16T18:06:48.463Z,74.37
2019-01-16T18:09:54.017Z,73.23
2019-01-16T18:12:39.289Z,73.52
2019-01-16T18:15:39.746Z,73.59
2019-01-16T18:18:24.681Z,73.86
2019-01-16T18:21:20.479Z,73.62
2019-01-16T18:24:10.417Z,73.48
2019-01-16T18:27:00.339Z,73.70
2019-01-16T18:30:02.057Z,74.21
2019-01-16T18:32:57.800Z,74.62
2019-01-16T18:35:42.323Z,73.97
2019-01-16T18:38:27.376Z,73.86
2019-01-16T18:41:23.835Z,73.91
2019-01-16T18:44:09.404Z,74.34
2019-01-16T18:47:14.619Z,74.42
2019-01-16T18:50:00.021Z,74.85
2019-01-16T18:52:41.993Z,74.22
2019-01-16T18:55:43.928Z,73.79
2019-01-16T18:58:29.723Z,73.58
2019-01-16T19:01:14.627Z,74.62
2019-01-16T19:04:00.085Z,74.91
2019-01-16T19:06:46.859Z,75.31
2019-01-16T19:09:48.612Z,74.41
2019-01-16T19:12:33.923Z,73.95
2019-01-16T19:15:13.658Z,74.64
2019-01-16T19:18:15.269Z,75.48
2019-01-16T19:21:00.297Z,75.43
2019-01-16T19:23:55.671Z,75.32
2019-01-16T19:26:41.549Z,74.11
2019-01-16T19:29:27.049Z,73.94
2019-01-16T19:32:12.539Z,73.52
2019-01-16T19:35:01.878Z,73.74
2019-01-16T19:38:03.861Z,74.55
2019-01-16T19:40:48.949Z,74.56
2019-01-16T19:43:30.233Z,74.70
2019-01-16T19:46:27.419Z,75.04
2019-01-16T19:49:29.123Z,74.53
2019-01-16T19:52:15.792Z,73.79
2019-01-16T19:55:06.899Z,73.68
2019-01-16T19:58:05.420Z,73.33
2019-01-16T20:00:51.031Z,73.10
2019-01-16T20:03:36.009Z,73.93
2019-01-16T20:06:22.968Z,74.74
2019-01-16T20:09:03.590Z,75.39
2019-01-16T20:12:05.513Z,75.71
2019-01-16T20:14:48.140Z,74.95
2019-01-16T20:17:33.316Z,74.81
2019-01-16T20:20:18.433Z,74.96
2019-01-16T20:23:03.517Z,75.20
2019-01-16T20:25:50.538Z,75.42
2019-01-16T20:28:29.192Z,75.77
2019-01-16T20:31:12.930Z,75.45
2019-01-16T20:33:58.298Z,75.23
2019-01-16T20:36:39.899Z,75.19
2019-01-16T20:39:25.231Z,74.61
2019-01-16T20:42:14.976Z,74.11
2019-01-16T20:45:13.629Z,74.18
2019-01-16T20:48:06.018Z,74.97
2019-01-16T20:50:55.449Z,75.30
2019-01-16T20:53:50.927Z,75.28
2019-01-16T20:56:37.689Z,75.09
2019-01-16T20:59:24.580Z,75.20
2019-01-16T21:02:17.141Z,75.34
2019-01-16T21:05:09.621Z,75.21
2019-01-16T21:08:10.994Z,75.35
2019-01-16T21:10:52.425Z,74.67
2019-01-16T21:13:45.148Z,74.68
2019-01-16T21:16:23.128Z,75.07
2019-01-16T21:19:12.405Z,75.02
2019-01-16T21:21:58.098Z,75.58
2019-01-16T21:24:43.156Z,75.96
2019-01-16T21:27:38.567Z,76.40
2019-01-16T21:30:25.725Z,76.65
2019-01-16T21:33:12.648Z,76.75
2019-01-16T21:35:56.146Z,76.70
2019-01-16T21:38:51.459Z,76.52
2019-01-16T21:41:38.054Z,76.29
2019-01-16T21:44:25.205Z,76.28
2019-01-16T21:47:14.326Z,76.56
2019-01-16T21:49:59.290Z,76.53
2019-01-16T21:52:45.978Z,76.31
2019-01-16T21:55:30.716Z,74.38
2019-01-16T21:58:07.095Z,73.74
2019-01-16T22:00:56.800Z,73.26
2019-01-16T22:03:46.123Z,72.35
2019-01-16T22:06:41.682Z,71.98
2019-01-16T22:09:17.558Z,71.70
2019-01-16T22:12:02.996Z,72.01
2019-01-16T22:14:48.514Z,70.80
2019-01-16T22:17:31.088Z,70.22
2019-01-16T22:20:16.376Z,69.87
2019-01-16T22:23:01.282Z,70.07
2019-01-16T22:25:46.368Z,70.41
2019-01-16T22:28:36.290Z,70.63
2019-01-16T22:31:19.779Z,70.88
2019-01-16T22:34:00.987Z,71.00
2019-01-16T22:36:48.601Z,70.74
2019-01-16T22:39:42.900Z,70.86
2019-01-16T22:42:28.135Z,70.86
2019-01-16T22:45:17.701Z,70.28
2019-01-16T22:47:56.527Z,70.21
2019-01-16T22:50:54.053Z,70.21
2019-01-16T22:53:43.455Z,70.52
2019-01-16T22:56:37.921Z,70.19
2019-01-16T22:59:22.681Z,69.81
2019-01-16T23:02:21.572Z,69.52
2019-01-16T23:05:16.878Z,68.64
2019-01-16T23:08:03.664Z,68.90
2019-01-16T23:10:48.827Z,68.34
2019-01-16T23:13:38.366Z,68.87
2019-01-16T23:16:27.752Z,68.60
2019-01-16T23:19:32.443Z,68.66
2019-01-16T23:22:34.096Z,68.85
2019-01-16T23:25:23.884Z,67.87
2019-01-16T23:28:09.279Z,67.44
2019-01-16T23:30:48.318Z,68.41
2019-01-16T23:33:25.391Z,69.37
2019-01-16T23:36:21.124Z,68.04
2019-01-16T23:39:19.903Z,68.28
2019-01-16T23:42:07.509Z,67.84
2019-01-16T23:44:51.114Z,68.24
2019-01-16T23:47:28.657Z,68.05
2019-01-16T23:50:07.532Z,67.72
2019-01-16T23:52:42.548Z,68.40
2019-01-16T23:55:21.699Z,68.62
2019-01-16T23:57:56.810Z,68.42
